Flight Track Log - Related Links

Times and Time Zones

All times are in EDT time to prevent confusion due to time zone crossing. See the DAL3721 flight status page for this flight to view local times or setup timezone preferences in your user account.

Time Position Orientation Groundspeed Altitude Reporting Facility
EDT Latitude Longitude Course Direction KTS MPH feet Rate Location/Type
Fri 08:40:27 AM 44.9000 -93.2500 250° West 170 196 2,600  Level Minneapolis TRACON
Fri 08:41:11 AM 44.8872 -93.2983 250° West 189 217 3,900 2,286 Climbing Minneapolis Center
Fri 08:42:12 AM 44.8389 -93.3753 228° Southwest 272 313 6,600 2,390 Climbing Minneapolis Center
Fri 08:43:14 AM 44.7606 -93.3911 188° South 289 333 8,800 2,390 Climbing Minneapolis Center
Fri 08:44:15 AM 44.6831 -93.3719 170° South 305 351 11,500 2,049 Climbing Minneapolis Center
Fri 08:45:17 AM 44.6419 -93.2622 118° Southeast 333 383 13,000 1,500 Climbing Minneapolis Center
Fri 08:46:19 AM 44.5956 -93.1369 117° Southeast 369 425 14,600 1,707 Climbing Minneapolis Center
Fri 08:47:20 AM 44.5381 -92.9806 117° Southeast 379 436 16,500 1,707 Climbing Minneapolis Center
Fri 08:48:22 AM 44.4883 -92.8467 117° Southeast 389 448 18,100 1,366 Climbing Minneapolis Center
Fri 08:49:23 AM 44.4375 -92.7128 118° Southeast 390 449 19,300 1,171 Climbing Minneapolis Center
Fri 08:50:25 AM 44.3858 -92.5725 117° Southeast 404 465 20,500 1,073 Climbing Minneapolis Center
Fri 08:51:26 AM 44.3325 -92.4314 118° Southeast 410 472 21,500 780 Climbing Minneapolis Center
Fri 08:52:28 AM 44.2703 -92.2903 122° Southeast 424 488 22,100 732 Climbing Minneapolis Center
Fri 08:53:29 AM 44.2089 -92.1472 121° Southeast 431 496 23,000 1,024 Climbing Minneapolis Center
Fri 08:54:31 AM 44.1342 -91.9764 121° Southeast 432 497 24,200 1,073 Climbing Minneapolis Center
Fri 08:55:32 AM 44.0733 -91.8336 121° Southeast 431 496 25,200 878 Climbing Minneapolis Center
Fri 08:56:34 AM 44.0156 -91.6897 119° Southeast 428 493 26,000 634 Climbing Minneapolis Center
Fri 08:57:35 AM 43.9597 -91.5606 121° Southeast 431 496 26,500 537 Climbing Minneapolis Center
Fri 08:58:37 AM 43.8867 -91.3839 120° Southeast 438 504 27,100 581 Climbing Minneapolis Center
Fri 08:59:39 AM 43.8239 -91.2361 120° Southeast 444 511 27,700 488 Climbing Minneapolis Center
Fri 09:00:40 AM 43.7608 -91.0881 120° Southeast 446 513 28,100 439 Climbing Minneapolis Center
Fri 09:01:42 AM 43.6964 -90.9372 121° Southeast 450 518 28,600 439 Climbing Minneapolis Center
Fri 09:02:43 AM 43.6333 -90.7892 120° Southeast 451 519 29,000 207 Climbing Minneapolis Center
Fri 09:03:38 AM 43.5675 -90.6392 121° Southeast 456 525 29,000  Level Chicago Center
Fri 09:04:39 AM 43.4994 -90.4828 121° Southeast 470 541 29,000  Level Chicago Center
Fri 09:05:41 AM 43.4311 -90.3239 121° Southeast 481 554 29,000  Level Chicago Center
Fri 09:06:43 AM 43.3606 -90.1681 122° Southeast 484 557 29,000  Level Chicago Center
Fri 09:07:45 AM 43.2903 -90.0067 121° Southeast 491 565 29,000  Level Chicago Center
Fri 09:08:47 AM 43.2047 -89.8139 121° Southeast 496 571 29,000  Level Chicago Center
Fri 09:09:49 AM 43.1336 -89.6525 121° Southeast 498 573 29,000  Level Chicago Center
Fri 09:10:51 AM 43.0603 -89.4906 122° Southeast 502 578 29,000  Level Chicago Center
Fri 09:11:52 AM 42.9869 -89.3283 122° Southeast 505 581 29,000  Level Chicago Center
Fri 09:12:54 AM 42.9136 -89.1653 122° Southeast 507 583 29,000  Level Chicago Center
Fri 09:13:56 AM 42.8389 -89.0022 122° Southeast 509 586 29,000  Level Chicago Center
Fri 09:14:58 AM 42.7500 -88.8072 122° Southeast 510 587 29,000  Level Chicago Center
Fri 09:16:00 AM 42.6747 -88.6444 122° Southeast 510 587 29,000  Level Chicago Center
Fri 09:17:02 AM 42.5997 -88.4839 122° Southeast 509 586 29,000  Level Chicago Center
Fri 09:18:04 AM 42.5244 -88.3222 122° Southeast 508 585 29,000  Level Chicago Center
Fri 09:19:06 AM 42.4483 -88.1597 122° Southeast 513 590 29,000  Level Chicago Center
Fri 09:20:08 AM 42.3567 -87.9656 123° Southeast 515 593 29,000  Level Chicago Center
Fri 09:21:10 AM 42.2833 -87.8131 123° Southeast 513 590 29,000  Level Chicago Center
Fri 09:22:12 AM 42.2056 -87.6503 123° Southeast 516 594 29,000  Level Chicago Center
Fri 09:23:14 AM 42.1275 -87.4883 123° Southeast 515 593 29,000  Level Chicago Center
Fri 09:24:16 AM 42.0339 -87.2928 123° Southeast 514 592 29,000  Level Chicago Center
Fri 09:25:18 AM 41.9544 -87.1331 124° Southeast 514 592 29,000  Level Chicago Center
Fri 09:26:21 AM 41.8769 -86.9722 123° Southeast 513 590 29,000  Level Chicago Center
Fri 09:27:23 AM 41.7997 -86.8133 123° Southeast 510 587 29,000  Level Chicago Center
Fri 09:28:25 AM 41.7136 -86.6403 124° Southeast 515 593 29,000  Level Chicago Center
Fri 09:29:27 AM 41.6356 -86.4844 124° Southeast 509 586 29,000  Level Chicago Center
Fri 09:30:29 AM 41.5569 -86.3278 124° Southeast 509 586 29,000  Level Chicago Center
Fri 09:31:31 AM 41.4789 -86.1700 123° Southeast 513 590 29,000  Level Chicago Center
Fri 09:32:33 AM 41.4006 -86.0161 124° Southeast 509 586 29,000  Level Chicago Center
Fri 09:33:35 AM 41.3061 -85.8294 124° Southeast 512 589 29,000  Level Chicago Center
Fri 09:34:37 AM 41.2264 -85.6744 124° Southeast 514 592 29,000 -339 Level Chicago Center
Fri 09:35:39 AM 41.1483 -85.5231 124° Southeast 506 582 28,300 -823 Descending Chicago Center
Fri 09:36:41 AM 41.0708 -85.3711 124° Southeast 503 579 27,300 -1,056 Descending Chicago Center
Fri 09:37:44 AM 40.9792 -85.1922 124° Southeast 494 568 26,100 -1,056 Descending Chicago Center
Fri 09:38:46 AM 40.9281 -85.0225 112° Southeast 496 571 25,100 -1,452 Descending Chicago Center
Fri 09:39:48 AM 40.8756 -84.8542 112° Southeast 495 570 23,100 -1,016 Descending Chicago Center
Fri 09:40:50 AM 40.8272 -84.6958 112° Southeast 468 539 23,000 -57 Descending Chicago Center
Fri 09:41:34 AM 40.7950 -84.5861 111° Southeast 457 526 23,000  Level Indianapolis Center
Fri 09:42:36 AM 40.7458 -84.4342 113° Southeast 451 519 23,000 -48 Level Indianapolis Center
Fri 09:43:38 AM 40.6867 -84.2478 113° Southeast 459 528 22,900 -339 Descending Indianapolis Center
Fri 09:44:40 AM 40.6372 -84.0900 112° Southeast 465 535 22,300 -774 Descending Indianapolis Center
Fri 09:45:42 AM 40.5881 -83.9339 112° Southeast 462 532 21,300 -1,935 Descending Indianapolis Center
Fri 09:46:44 AM 40.5383 -83.7794 113° Southeast 460 529 18,300 -2,855 Descending Indianapolis Center
Fri 09:47:46 AM 40.4917 -83.6322 113° Southeast 445 512 15,400 -3,191 Descending Indianapolis Center
Fri 09:48:18 AM 40.4600 -83.5394 114° Southeast 411 473 13,300 -3,000 Descending Indianapolis Center
Fri 09:48:48 AM 40.4467 -83.4961 112° Southeast 418 481 12,300 -2,444 Descending Indianapolis Center
Fri 09:49:12 AM 40.4233 -83.4231 113° Southeast 391 450 11,100 -1,355 Descending Indianapolis Center
Fri 09:49:50 AM 40.3928 -83.3572 121° Southeast 342 394 10,900 -448 Descending Indianapolis Center
Fri 09:50:19 AM 40.3686 -83.3150 127° Southeast 304 350 10,600 -762 Descending Indianapolis Center
Fri 09:50:53 AM 40.3411 -83.2650 126° Southeast 313 360 10,100 -655 Descending Indianapolis Center
Fri 09:51:14 AM 40.3203 -83.2300 128° Southeast 312 359 10,000 -97 Descending Indianapolis Center
Fri 09:51:55 AM 40.2869 -83.1725 127° Southeast 317 365 10,000  Level Indianapolis Center
Fri 09:52:21 AM 40.2589 -83.1267 129° Southeast 333 383 10,000 -97 Level Indianapolis Center
Fri 09:52:57 AM 40.2281 -83.0758 128° Southeast 334 384 9,900 -787 Descending Indianapolis Center
Fri 09:53:22 AM 40.2042 -83.0383 130° Southeast 317 365 9,200 -1,452 Descending Indianapolis Center
Fri 09:53:59 AM 40.1778 -82.9894 125° Southeast 303 349 8,400 -1,600 Descending Indianapolis Center
Fri 09:54:22 AM 40.1519 -82.9475 129° Southeast 278 320 7,600 -1,452 Descending Indianapolis Center
Fri 09:55:01 AM 40.1311 -82.9086 125° Southeast 282 325 6,900 -1,479 Descending Indianapolis Center
Fri 09:55:35 AM 40.0975 -82.8569 130° Southeast 268 308 5,800 -1,548 Descending Indianapolis Center
Fri 09:56:03 AM 40.0847 -82.8322 124° Southeast 272 313 5,300 -1,469 Descending Indianapolis Center
Fri 09:56:24 AM 40.0792 -82.7828 98° East 261 300 4,600 -1,258 Descending Indianapolis Center
Fri 09:57:05 AM 40.0783 -82.7214 91° East 260 299 4,000 -590 Descending Indianapolis Center
Fri 09:57:25 AM 40.0792 -82.6925 88° East 249 287 4,000 -194 Level Indianapolis Center
Fri 09:58:07 AM 40.0692 -82.6392 104° East 249 287 3,800 -689 Descending Indianapolis Center
Fri 09:58:26 AM 40.0511 -82.6336 167° South 212 244 3,300 -1,258 Descending Indianapolis Center
Fri 09:59:09 AM 40.0111 -82.6369 184° South 219 252 2,500 -800 Descending Indianapolis Center
Fri 09:59:26 AM 39.9953 -82.6467 205° Southwest 190 219 2,500  Level Indianapolis Center
Fri 10:00:21 AM 39.9900 -82.7031 263° West 164 189 2,500  Level Indianapolis Center
Fri 10:01:13 AM 39.9947 -82.7494 278° West 178 205 2,500 -90 Level Indianapolis Center
Fri 10:01:28 AM 39.9956 -82.7778 272° West 180 207 2,400 -581 Descending Indianapolis Center
Fri 10:02:15 AM 39.9983 -82.8103 276° West 173 199 1,900 -764 Descending Indianapolis Center
Fri 10:02:23 AM 39.9975 -82.8244 266° West 163 188 1,700 -581 Descending Indianapolis Center
Fri 10:03:17 AM 40.0003 -82.8589 276° West 146 168 1,300 -444 Descending Indianapolis Center

Login

Don't have an account? Register now (free) for customized features, flight alerts, and more!